SKSM/SMR METAR and TAF weather

Enter ICAO airport designator
Station Type Date Time Source
SKSM METAR 2021/03/01 03:00 UTC NOAA

SKSM 010300Z 02017KT 9999 NSC 30/17 Q1006 RMK A2972


Station Type Date Time Source
SKSM Decoded METAR 2021/03/01 03:00 UTC NOAA

Santa Marta / Simon Bolivar, Colombia (SKSM) 11-08N 074-14W 14M
Feb 28, 2021 - 10:00 PM EST / 2021.03.01 0300 UTC
Wind: from the NNE (020 degrees) at 20 MPH (17 KT):0
Visibility: greater than 7 mile(s):0
Temperature: 86 F (30 C)
Dew Point: 62 F (17 C)
Relative Humidity: 45%
Pressure (altimeter): 29.71 in. Hg (1006 hPa)
ob: SKSM 010300Z 02017KT 9999 NSC 30/17 Q1006 RMK A2972
cycle: 3

Station Type Date Time Source
SKSM TAF UTC NOAA

Error!

Example: see airport list